createdAt,value
2019-05-03T00:01:02.371Z,12.95
2019-05-03T00:03:31.978Z,13.48
2019-05-03T00:06:02.245Z,13.20
2019-05-03T00:08:30.818Z,13.03
2019-05-03T00:10:59.305Z,13.50
2019-05-03T00:13:27.770Z,12.88
2019-05-03T00:15:58.056Z,13.70
2019-05-03T00:18:26.686Z,12.80
2019-05-03T00:20:55.244Z,12.35
2019-05-03T00:23:23.686Z,12.20
2019-05-03T00:25:52.947Z,12.23
2019-05-03T00:28:21.758Z,12.25
2019-05-03T00:30:51.900Z,12.05
2019-05-03T00:33:22.283Z,11.83
2019-05-03T00:36:08.456Z,11.80
2019-05-03T00:38:36.956Z,11.73
2019-05-03T00:41:07.120Z,11.85
2019-05-03T00:43:36.994Z,12.47
2019-05-03T00:46:05.583Z,11.80
2019-05-03T00:48:34.028Z,11.88
2019-05-03T00:51:02.590Z,13.28
2019-05-03T00:53:31.743Z,12.80
2019-05-03T00:56:01.787Z,13.03
2019-05-03T00:58:31.831Z,13.38
2019-05-03T01:01:02.495Z,14.25
2019-05-03T01:03:32.530Z,14.70
2019-05-03T01:06:02.256Z,16.20
2019-05-03T01:08:32.520Z,15.90
2019-05-03T01:11:02.116Z,17.67
2019-05-03T01:13:32.067Z,16.17
2019-05-03T01:16:05.212Z,16.52
2019-05-03T01:21:02.308Z,16.27
2019-05-03T01:23:32.600Z,16.27
2019-05-03T01:26:02.483Z,15.98
2019-05-03T01:28:32.308Z,16.10
2019-05-03T01:31:02.592Z,17.57
2019-05-03T01:33:32.178Z,16.80
2019-05-03T01:36:02.785Z,16.12
2019-05-03T01:38:31.884Z,16.40
2019-05-03T01:41:01.731Z,14.40
2019-05-03T01:43:31.807Z,14.33
2019-05-03T01:46:02.513Z,15.03
2019-05-03T01:48:32.333Z,15.88
2019-05-03T01:51:14.255Z,15.83
2019-05-03T01:53:44.308Z,14.78
2019-05-03T01:56:12.884Z,13.50
2019-05-03T01:58:41.757Z,16.12
2019-05-03T02:01:26.898Z,16.55
2019-05-03T02:04:03.056Z,17.77
2019-05-03T02:06:31.889Z,18.05
2019-05-03T02:09:01.625Z,18.20
2019-05-03T02:11:30.202Z,20.15
2019-05-03T02:13:58.747Z,20.15
2019-05-03T02:16:27.212Z,19.70
2019-05-03T02:18:55.757Z,15.75
2019-05-03T02:21:24.331Z,15.70
2019-05-03T02:23:52.789Z,14.70
2019-05-03T02:26:23.361Z,13.40
2019-05-03T02:28:52.741Z,13.05
2019-05-03T02:31:23.198Z,13.25
2019-05-03T02:33:53.447Z,13.18
2019-05-03T02:36:23.264Z,13.10
2019-05-03T02:38:53.436Z,13.88
2019-05-03T02:41:22.831Z,13.13
2019-05-03T02:43:55.810Z,13.90
2019-05-03T02:46:36.791Z,13.15
2019-05-03T02:49:22.010Z,13.18
2019-05-03T02:51:50.443Z,15.95
2019-05-03T02:54:18.894Z,13.88
2019-05-03T02:56:47.320Z,13.38
2019-05-03T02:59:16.181Z,13.15
2019-05-03T03:01:46.467Z,14.30
2019-05-03T03:04:15.950Z,13.72
2019-05-03T03:06:47.349Z,13.78
2019-05-03T03:09:19.237Z,13.62
2019-05-03T03:11:50.743Z,13.48
2019-05-03T03:14:21.508Z,13.88
2019-05-03T03:16:51.809Z,13.00
2019-05-03T03:19:25.981Z,13.20
2019-05-03T03:21:56.596Z,21.42
2019-05-03T03:24:27.796Z,24.10
2019-05-03T03:26:58.376Z,21.82
2019-05-03T03:29:28.434Z,15.60
2019-05-03T03:32:17.688Z,13.72
2019-05-03T03:34:54.664Z,16.02
2019-05-03T03:37:17.648Z,15.48
2019-05-03T03:39:46.240Z,16.52
2019-05-03T03:42:16.069Z,16.10
2019-05-03T03:44:45.564Z,16.97
2019-05-03T03:47:16.739Z,15.98
2019-05-03T03:49:46.519Z,16.85
2019-05-03T03:52:16.944Z,15.72
2019-05-03T03:54:47.928Z,15.08
2019-05-03T03:57:18.271Z,16.80
2019-05-03T03:59:47.314Z,15.05
2019-05-03T04:02:16.224Z,16.42
2019-05-03T04:04:45.387Z,15.28
2019-05-03T04:07:15.736Z,15.53
2019-05-03T04:09:45.651Z,15.88
2019-05-03T04:12:16.594Z,15.68
2019-05-03T04:14:46.526Z,15.95
2019-05-03T04:17:25.782Z,15.88
2019-05-03T04:19:55.927Z,17.77
2019-05-03T04:22:25.445Z,17.02
2019-05-03T04:24:55.363Z,16.85
2019-05-03T04:27:27.241Z,16.37
2019-05-03T04:29:55.690Z,17.20
2019-05-03T04:32:28.475Z,17.70
2019-05-03T04:34:56.001Z,16.07
2019-05-03T04:37:26.555Z,17.40
2019-05-03T04:39:56.100Z,16.05
2019-05-03T04:42:25.565Z,29.42
2019-05-03T04:44:56.278Z,22.00
2019-05-03T04:47:26.302Z,21.10
2019-05-03T04:49:55.567Z,15.68
2019-05-03T04:52:25.873Z,15.93
2019-05-03T04:54:56.658Z,15.90
2019-05-03T04:57:36.359Z,15.00
2019-05-03T04:59:56.264Z,22.10
2019-05-03T05:02:26.389Z,17.87
2019-05-03T05:04:55.645Z,14.43
2019-05-03T05:07:26.109Z,15.00
2019-05-03T05:09:56.188Z,14.30
2019-05-03T05:12:25.347Z,15.08
2019-05-03T05:14:56.119Z,14.13
2019-05-03T05:17:31.447Z,15.23
2019-05-03T05:20:01.555Z,14.93
2019-05-03T05:22:31.758Z,14.03
2019-05-03T05:25:01.874Z,13.90
2019-05-03T05:27:47.889Z,13.35
2019-05-03T05:30:07.738Z,12.58
2019-05-03T05:32:36.277Z,13.05
2019-05-03T05:35:06.406Z,11.83
2019-05-03T05:37:36.526Z,13.03
2019-05-03T05:40:06.701Z,13.18
2019-05-03T05:42:35.393Z,12.25
2019-05-03T05:45:05.498Z,14.30
2019-05-03T05:47:54.763Z,14.25
2019-05-03T05:50:27.685Z,12.93
2019-05-03T05:52:56.154Z,14.10
2019-05-03T05:55:42.159Z,14.87
2019-05-03T05:58:21.119Z,13.90
2019-05-03T06:00:59.845Z,14.05
2019-05-03T06:03:28.331Z,14.75
2019-05-03T06:05:58.498Z,14.83
2019-05-03T06:08:28.606Z,16.00
2019-05-03T06:11:17.057Z,16.45
2019-05-03T06:13:47.439Z,16.57
2019-05-03T06:16:20.348Z,17.02
2019-05-03T06:18:54.448Z,16.75
2019-05-03T06:21:31.094Z,17.48
2019-05-03T06:24:18.692Z,17.35
2019-05-03T06:26:57.259Z,16.48
2019-05-03T06:29:25.778Z,17.05
2019-05-03T06:32:07.723Z,17.57
2019-05-03T06:34:36.431Z,17.15
2019-05-03T06:37:09.532Z,18.32
2019-05-03T06:42:09.906Z,16.45
2019-05-03T06:44:35.878Z,16.80
2019-05-03T06:47:09.066Z,17.42
2019-05-03T06:49:39.229Z,17.52
2019-05-03T06:52:05.894Z,15.10
2019-05-03T06:54:37.679Z,14.58
2019-05-03T06:57:09.520Z,15.32
2019-05-03T06:59:38.596Z,14.43
2019-05-03T07:02:09.096Z,14.98
2019-05-03T07:04:53.869Z,15.10
2019-05-03T07:07:27.851Z,14.03
2019-05-03T07:09:57.762Z,14.53
2019-05-03T07:12:28.039Z,14.98
2019-05-03T07:14:56.589Z,14.75
2019-05-03T07:17:25.840Z,13.85
2019-05-03T07:19:54.744Z,14.18
2019-05-03T07:22:24.459Z,15.98
2019-05-03T07:24:54.665Z,15.48
2019-05-03T07:27:24.770Z,17.42
2019-05-03T07:29:55.458Z,16.70
2019-05-03T07:32:24.662Z,16.87
2019-05-03T07:34:55.630Z,18.87
2019-05-03T07:37:24.664Z,18.25
2019-05-03T07:39:55.458Z,18.92
2019-05-03T07:42:25.458Z,17.80
2019-05-03T07:44:55.801Z,19.70
2019-05-03T07:47:24.603Z,19.15
2019-05-03T07:49:55.680Z,15.38
2019-05-03T07:52:25.880Z,15.10
2019-05-03T07:54:55.212Z,15.10
2019-05-03T07:57:25.631Z,15.45
2019-05-03T07:59:55.718Z,14.55
2019-05-03T08:02:27.244Z,14.87
2019-05-03T08:04:54.907Z,11.83
2019-05-03T08:07:25.517Z,12.28
2019-05-03T08:09:55.551Z,12.68
2019-05-03T08:12:24.706Z,10.98
2019-05-03T08:14:55.102Z,12.50
2019-05-03T08:17:25.369Z,12.35
2019-05-03T08:19:55.179Z,11.18
2019-05-03T08:22:25.522Z,12.18
2019-05-03T08:24:55.530Z,12.93
2019-05-03T08:27:25.117Z,12.73
2019-05-03T08:29:55.677Z,12.93
2019-05-03T08:32:25.747Z,12.50
2019-05-03T08:35:04.905Z,13.53
2019-05-03T08:37:35.043Z,12.75
2019-05-03T08:40:05.252Z,12.07
2019-05-03T08:42:35.151Z,12.70
2019-05-03T08:45:07.932Z,12.15
2019-05-03T08:47:35.475Z,11.95
2019-05-03T08:50:06.308Z,11.80
2019-05-03T08:52:34.917Z,11.22
2019-05-03T08:55:05.264Z,10.90
2019-05-03T08:57:35.405Z,11.08
2019-05-03T09:00:09.647Z,10.85
2019-05-03T09:02:38.132Z,10.65
2019-05-03T09:05:07.414Z,10.88
2019-05-03T09:07:35.911Z,9.23
2019-05-03T09:10:12.350Z,9.05
2019-05-03T09:12:56.079Z,6.60
2019-05-03T09:15:25.200Z,6.15
2019-05-03T09:17:55.268Z,5.67
2019-05-03T09:20:25.073Z,6.00
2019-05-03T09:22:54.918Z,5.78
2019-05-03T09:25:24.786Z,6.20
2019-05-03T09:27:55.150Z,6.30
2019-05-03T09:30:25.125Z,5.78
2019-05-03T09:32:55.135Z,5.45
2019-05-03T09:35:32.168Z,5.08
2019-05-03T09:37:55.554Z,5.17
2019-05-03T09:40:24.671Z,5.20
2019-05-03T09:42:55.076Z,7.03
2019-05-03T09:45:24.561Z,5.87
2019-05-03T09:47:55.017Z,5.50
2019-05-03T09:50:24.707Z,5.50
2019-05-03T09:52:55.431Z,5.95
2019-05-03T09:55:28.154Z,6.78
2019-05-03T09:57:56.726Z,6.83
2019-05-03T10:00:25.216Z,6.87
2019-05-03T10:02:54.820Z,7.03
2019-05-03T10:05:25.557Z,6.62
2019-05-03T10:07:53.879Z,6.92
2019-05-03T10:10:24.692Z,6.60
2019-05-03T10:12:54.938Z,6.67
2019-05-03T10:15:36.626Z,7.72
2019-05-03T10:18:10.595Z,7.85
2019-05-03T10:20:35.867Z,7.22
2019-05-03T10:23:06.359Z,6.72
2019-05-03T10:25:35.791Z,6.08
2019-05-03T10:28:06.144Z,5.95
2019-05-03T10:30:35.424Z,6.40
2019-05-03T10:33:08.712Z,6.72
2019-05-03T10:35:37.169Z,6.10
2019-05-03T10:38:05.924Z,6.22
2019-05-03T10:40:35.759Z,6.40
2019-05-03T10:43:05.711Z,6.95
2019-05-03T10:45:35.477Z,5.17
2019-05-03T10:48:04.746Z,5.40
2019-05-03T10:50:34.784Z,4.00
2019-05-03T10:53:16.782Z,3.62
2019-05-03T10:55:47.150Z,3.40
2019-05-03T10:58:17.347Z,4.05
2019-05-03T11:00:52.782Z,4.20
2019-05-03T11:03:18.074Z,4.67
2019-05-03T11:05:46.728Z,4.33
2019-05-03T11:08:15.366Z,4.53
2019-05-03T11:10:43.782Z,4.83
2019-05-03T11:13:12.258Z,4.45
2019-05-03T11:15:40.669Z,4.65
2019-05-03T11:18:09.354Z,4.95
2019-05-03T11:20:38.063Z,4.80
2019-05-03T11:23:07.699Z,4.80
2019-05-03T11:25:36.850Z,4.15
2019-05-03T11:28:11.051Z,4.58
2019-05-03T11:30:51.947Z,4.20
2019-05-03T11:33:11.363Z,4.53
2019-05-03T11:35:47.152Z,4.20
2019-05-03T11:38:20.172Z,4.40
2019-05-03T11:43:17.995Z,4.45
2019-05-03T11:45:46.587Z,4.62
2019-05-03T11:48:15.097Z,4.78
2019-05-03T11:50:45.316Z,4.83
2019-05-03T11:53:14.538Z,4.40
2019-05-03T11:55:46.164Z,4.30
2019-05-03T11:58:21.134Z,3.90
2019-05-03T12:00:51.636Z,4.10
2019-05-03T12:03:25.042Z,4.40
2019-05-03T12:05:57.546Z,4.60
2019-05-03T12:08:26.015Z,4.62
2019-05-03T12:10:58.596Z,4.70
2019-05-03T12:13:31.040Z,4.85
2019-05-03T12:16:00.605Z,4.70
2019-05-03T12:18:29.715Z,4.42
2019-05-03T12:20:59.887Z,3.90
2019-05-03T12:23:31.309Z,4.40
2019-05-03T12:25:59.354Z,4.15
2019-05-03T12:28:28.276Z,4.35
2019-05-03T12:30:56.854Z,4.35
2019-05-03T12:33:26.062Z,4.58
2019-05-03T12:35:55.196Z,4.00
2019-05-03T12:38:25.534Z,3.87
2019-05-03T12:40:54.667Z,4.28
2019-05-03T12:43:25.176Z,4.90
2019-05-03T12:45:53.414Z,4.95
2019-05-03T12:48:21.942Z,3.83
2019-05-03T12:50:50.960Z,4.50
2019-05-03T12:53:21.978Z,4.25
2019-05-03T12:55:49.869Z,4.30
2019-05-03T12:58:18.555Z,4.55
2019-05-03T13:00:48.776Z,4.50
2019-05-03T13:03:18.801Z,3.98
2019-05-03T13:05:47.258Z,4.12
2019-05-03T13:08:39.288Z,3.98
2019-05-03T13:11:07.888Z,4.00
2019-05-03T13:13:36.564Z,4.47
2019-05-03T13:16:06.027Z,4.33
2019-05-03T13:18:35.378Z,4.97
2019-05-03T13:21:05.742Z,4.40
2019-05-03T13:23:35.303Z,4.05
2019-05-03T13:26:05.621Z,4.30
2019-05-03T13:28:34.757Z,3.98
2019-05-03T13:31:05.426Z,3.90
2019-05-03T13:33:34.837Z,3.72
2019-05-03T13:36:04.152Z,3.95
2019-05-03T13:38:34.680Z,3.50
2019-05-03T13:41:02.955Z,3.62
2019-05-03T13:43:31.497Z,3.50
2019-05-03T13:46:00.142Z,3.52
2019-05-03T13:48:41.600Z,3.80
2019-05-03T13:50:58.842Z,3.55
2019-05-03T13:53:27.296Z,3.67
2019-05-03T13:55:55.805Z,3.33
2019-05-03T13:58:26.229Z,3.98
2019-05-03T14:00:54.989Z,3.45
2019-05-03T14:03:23.634Z,3.58
2019-05-03T14:05:52.109Z,3.52
2019-05-03T14:08:20.566Z,3.40
2019-05-03T14:10:49.761Z,3.27
2019-05-03T14:13:18.242Z,3.10
2019-05-03T14:15:46.693Z,3.42
2019-05-03T14:18:15.577Z,3.50
2019-05-03T14:20:48.554Z,3.00
2019-05-03T14:23:17.017Z,3.52
2019-05-03T14:25:45.471Z,3.83
2019-05-03T14:28:14.602Z,3.22
2019-05-03T14:30:45.326Z,3.77
2019-05-03T14:33:14.001Z,3.15
2019-05-03T14:35:42.484Z,3.50
2019-05-03T14:38:10.951Z,3.42
2019-05-03T14:40:39.494Z,3.30
2019-05-03T14:43:07.986Z,3.40
2019-05-03T14:45:36.486Z,2.75
2019-05-03T14:48:06.158Z,2.95
2019-05-03T14:50:35.162Z,2.70
2019-05-03T14:53:05.480Z,3.05
2019-05-03T14:55:41.554Z,3.00
2019-05-03T14:58:29.632Z,3.20
2019-05-03T15:01:04.673Z,3.12
2019-05-03T15:03:32.571Z,3.10
2019-05-03T15:06:01.067Z,3.25
2019-05-03T15:08:29.506Z,2.50
2019-05-03T15:10:58.009Z,3.27
2019-05-03T15:13:26.476Z,3.00
2019-05-03T15:15:55.002Z,2.55
2019-05-03T15:18:25.413Z,2.65
2019-05-03T15:20:54.915Z,2.50
2019-05-03T15:23:25.477Z,2.95
2019-05-03T15:25:54.565Z,2.70
2019-05-03T15:28:25.020Z,2.60
2019-05-03T15:30:55.277Z,2.42
2019-05-03T15:33:23.609Z,2.00
2019-05-03T15:35:52.069Z,2.65
2019-05-03T15:38:20.550Z,2.70
2019-05-03T15:40:49.098Z,2.65
2019-05-03T15:43:19.307Z,2.67
2019-05-03T15:46:07.270Z,2.62
2019-05-03T15:48:40.286Z,2.37
2019-05-03T15:53:36.446Z,2.35
2019-05-03T15:56:05.385Z,2.20
2019-05-03T15:58:33.911Z,2.50
2019-05-03T16:01:04.534Z,2.60
2019-05-03T16:03:32.820Z,2.70
2019-05-03T16:06:01.234Z,2.70
2019-05-03T16:08:29.939Z,2.42
2019-05-03T16:10:58.787Z,2.40
2019-05-03T16:13:27.268Z,2.42
2019-05-03T16:15:55.846Z,2.20
2019-05-03T16:18:27.064Z,2.45
2019-05-03T16:20:55.561Z,2.00
2019-05-03T16:23:25.017Z,2.17
2019-05-03T16:25:54.403Z,1.90
2019-05-03T16:28:24.903Z,1.72
2019-05-03T16:30:55.581Z,2.12
2019-05-03T16:33:27.831Z,2.20
2019-05-03T16:35:54.875Z,2.22
2019-05-03T16:38:24.842Z,2.30
2019-05-03T16:40:54.552Z,2.17
2019-05-03T16:43:25.131Z,2.00
2019-05-03T16:45:55.017Z,2.15
2019-05-03T16:48:24.696Z,2.45
2019-05-03T16:50:53.342Z,2.37
2019-05-03T16:53:21.779Z,2.37
2019-05-03T16:55:50.207Z,1.98
2019-05-03T16:58:18.677Z,1.70
2019-05-03T17:00:47.159Z,1.90
2019-05-03T17:03:17.343Z,2.55
2019-05-03T17:05:50.161Z,1.85
2019-05-03T17:08:35.205Z,2.17
2019-05-03T17:11:05.725Z,2.02
2019-05-03T17:13:34.649Z,2.00
2019-05-03T17:16:04.762Z,2.27
2019-05-03T17:18:35.285Z,2.05
2019-05-03T17:21:04.822Z,2.08
2019-05-03T17:23:35.129Z,2.00
2019-05-03T17:26:03.506Z,2.15
2019-05-03T17:28:32.057Z,2.62
2019-05-03T17:31:00.511Z,2.58
2019-05-03T17:33:28.987Z,2.15
2019-05-03T17:35:57.839Z,2.20
2019-05-03T17:38:26.297Z,2.40
2019-05-03T17:41:04.989Z,9.95
2019-05-03T17:43:35.082Z,2.35
2019-05-03T17:46:05.279Z,2.45
2019-05-03T17:48:34.887Z,2.65
2019-05-03T17:51:04.451Z,4.17
2019-05-03T17:53:37.617Z,7.00
2019-05-03T17:58:48.976Z,2.33
2019-05-03T18:01:19.104Z,2.15
2019-05-03T18:04:06.596Z,2.02
2019-05-03T18:06:31.561Z,2.47
2019-05-03T18:09:10.299Z,2.30
2019-05-03T18:11:40.393Z,2.10
2019-05-03T18:14:08.837Z,2.08
2019-05-03T18:16:37.405Z,2.05
2019-05-03T18:19:06.046Z,2.22
2019-05-03T18:21:37.876Z,2.27
2019-05-03T18:24:09.688Z,2.33
2019-05-03T18:26:38.281Z,2.10
2019-05-03T18:29:06.749Z,2.33
2019-05-03T18:31:44.689Z,2.40
2019-05-03T18:34:19.708Z,2.37
2019-05-03T18:36:45.026Z,2.45
2019-05-03T18:39:14.733Z,2.27
2019-05-03T18:41:45.064Z,3.08
2019-05-03T18:44:15.391Z,2.30
2019-05-03T18:46:48.380Z,2.02
2019-05-03T18:51:45.000Z,2.70
2019-05-03T18:54:15.493Z,2.60
2019-05-03T18:56:43.899Z,2.40
2019-05-03T18:59:14.529Z,2.35
2019-05-03T19:01:45.045Z,2.45
2019-05-03T19:04:34.276Z,2.47
2019-05-03T19:07:04.373Z,3.70
2019-05-03T19:09:32.053Z,4.58
2019-05-03T19:12:02.169Z,2.70
2019-05-03T19:14:30.715Z,4.60
2019-05-03T19:17:16.907Z,2.67
2019-05-03T19:19:47.169Z,3.30
2019-05-03T19:22:15.741Z,2.77
2019-05-03T19:24:45.746Z,2.67
2019-05-03T19:27:14.834Z,2.50
2019-05-03T19:29:44.928Z,2.80
2019-05-03T19:32:15.009Z,2.95
2019-05-03T19:34:50.102Z,2.85
2019-05-03T19:37:14.513Z,2.92
2019-05-03T19:39:43.187Z,3.42
2019-05-03T19:42:11.789Z,2.90
2019-05-03T19:44:40.491Z,5.45
2019-05-03T19:47:09.170Z,5.25
2019-05-03T19:49:37.640Z,2.95
2019-05-03T19:52:06.259Z,3.87
2019-05-03T19:54:36.499Z,3.20
2019-05-03T19:57:05.161Z,3.17
2019-05-03T19:59:44.763Z,2.85
2019-05-03T20:02:24.467Z,2.77
2019-05-03T20:05:10.651Z,3.15
2019-05-03T20:07:57.226Z,3.27
2019-05-03T20:10:37.366Z,3.12
2019-05-03T20:13:06.058Z,2.62
2019-05-03T20:15:34.544Z,3.08
2019-05-03T20:18:04.792Z,3.27
2019-05-03T20:20:33.449Z,2.92
2019-05-03T20:23:02.167Z,3.00
2019-05-03T20:25:30.713Z,3.08
2019-05-03T20:27:59.252Z,2.60
2019-05-03T20:30:27.838Z,2.90
2019-05-03T20:32:56.355Z,3.45
2019-05-03T20:35:25.301Z,3.40
2019-05-03T20:37:55.368Z,3.00
2019-05-03T20:40:25.551Z,2.90
2019-05-03T20:43:04.967Z,2.72
2019-05-03T20:45:44.547Z,2.75
2019-05-03T20:48:14.803Z,2.72
2019-05-03T20:50:44.733Z,2.98
2019-05-03T20:53:13.356Z,2.33
2019-05-03T20:55:41.928Z,49.65
2019-05-03T20:58:11.483Z,2.87
2019-05-03T21:00:40.064Z,5.45
2019-05-03T21:03:08.606Z,12.33
2019-05-03T21:05:37.527Z,3.10
2019-05-03T21:08:06.202Z,2.83
2019-05-03T21:10:34.799Z,2.60
2019-05-03T21:13:05.279Z,3.47
2019-05-03T21:15:44.553Z,3.98
2019-05-03T21:18:15.189Z,3.15
2019-05-03T21:20:45.492Z,3.50
2019-05-03T21:23:15.739Z,3.42
2019-05-03T21:26:05.733Z,4.45
2019-05-03T21:28:16.187Z,3.50
2019-05-03T21:30:45.470Z,4.72
2019-05-03T21:33:15.771Z,2.58
2019-05-03T21:35:45.228Z,3.15
2019-05-03T21:38:13.853Z,2.75
2019-05-03T21:40:42.286Z,3.20
2019-05-03T21:43:10.964Z,2.92
2019-05-03T21:45:41.431Z,2.85
2019-05-03T21:48:11.565Z,3.17
2019-05-03T21:50:40.042Z,2.83
2019-05-03T21:53:08.562Z,2.92
2019-05-03T21:55:37.038Z,3.20
2019-05-03T21:58:05.717Z,3.05
2019-05-03T22:00:45.382Z,3.27
2019-05-03T22:03:14.566Z,3.52
2019-05-03T22:05:54.810Z,3.50
2019-05-03T22:08:13.435Z,3.45
2019-05-03T22:10:42.046Z,3.20
2019-05-03T22:13:10.677Z,3.50
2019-05-03T22:15:40.895Z,3.62
2019-05-03T22:18:11.119Z,3.67
2019-05-03T22:20:56.313Z,3.45
2019-05-03T22:23:38.344Z,3.08
2019-05-03T22:26:07.556Z,3.60
2019-05-03T22:28:36.063Z,3.77
2019-05-03T22:31:06.765Z,3.20
2019-05-03T22:33:34.824Z,3.87
2019-05-03T22:36:08.602Z,3.20
2019-05-03T22:38:36.380Z,3.90
2019-05-03T22:41:05.501Z,3.90
2019-05-03T22:43:34.871Z,3.80
2019-05-03T22:46:05.190Z,4.20
2019-05-03T22:48:33.672Z,3.58
2019-05-03T22:51:05.642Z,23.65
2019-05-03T22:53:34.440Z,10.10
2019-05-03T22:56:04.759Z,3.67
2019-05-03T22:58:35.334Z,3.67
2019-05-03T23:01:03.900Z,4.20
2019-05-03T23:03:35.428Z,3.92
2019-05-03T23:06:05.054Z,3.83
2019-05-03T23:08:34.587Z,4.37
2019-05-03T23:11:05.126Z,4.53
2019-05-03T23:13:33.433Z,4.87
2019-05-03T23:16:01.919Z,4.92
2019-05-03T23:18:30.472Z,4.53
2019-05-03T23:21:15.730Z,5.15
2019-05-03T23:23:51.331Z,4.47
2019-05-03T23:26:19.767Z,4.70
2019-05-03T23:28:48.311Z,4.90
2019-05-03T23:31:16.800Z,5.47
2019-05-03T23:33:45.422Z,5.80
2019-05-03T23:36:15.386Z,5.47
2019-05-03T23:38:45.229Z,5.40
2019-05-03T23:41:15.331Z,5.55
2019-05-03T23:43:45.122Z,5.62
2019-05-03T23:46:15.146Z,4.97
2019-05-03T23:48:44.676Z,5.92
2019-05-03T23:51:14.991Z,5.97
2019-05-03T23:53:44.675Z,5.90
2019-05-03T23:56:17.587Z,6.30
2019-05-03T23:58:46.061Z,6.22
